sensor_id;sensor_type;location;lat;lon;timestamp;P1;durP1;ratioP1;P2;durP2;ratioP2
44774;SDS011;31340;51.402;0.016;2022-10-19T00:01:12;17.02;;;2.55;;
44774;SDS011;31340;51.402;0.016;2022-10-19T00:03:49;12.40;;;2.20;;
44774;SDS011;31340;51.402;0.016;2022-10-19T00:06:20;10.63;;;2.20;;
44774;SDS011;31340;51.402;0.016;2022-10-19T00:08:54;9.05;;;3.13;;
44774;SDS011;31340;51.402;0.016;2022-10-19T00:11:24;13.95;;;2.50;;
44774;SDS011;31340;51.402;0.016;2022-10-19T00:13:52;13.82;;;2.10;;
44774;SDS011;31340;51.402;0.016;2022-10-19T00:16:21;8.93;;;2.25;;
44774;SDS011;31340;51.402;0.016;2022-10-19T00:18:49;12.32;;;2.33;;
44774;SDS011;31340;51.402;0.016;2022-10-19T00:21:17;16.30;;;2.90;;
44774;SDS011;31340;51.402;0.016;2022-10-19T00:23:45;13.68;;;2.67;;
44774;SDS011;31340;51.402;0.016;2022-10-19T00:26:14;9.50;;;2.55;;
44774;SDS011;31340;51.402;0.016;2022-10-19T00:28:42;12.20;;;2.47;;
44774;SDS011;31340;51.402;0.016;2022-10-19T00:31:11;16.65;;;3.60;;
44774;SDS011;31340;51.402;0.016;2022-10-19T00:33:40;18.60;;;3.95;;
44774;SDS011;31340;51.402;0.016;2022-10-19T00:38:48;15.20;;;3.70;;
44774;SDS011;31340;51.402;0.016;2022-10-19T00:41:16;19.13;;;3.67;;
44774;SDS011;31340;51.402;0.016;2022-10-19T00:43:59;20.58;;;3.70;;
44774;SDS011;31340;51.402;0.016;2022-10-19T00:46:32;16.38;;;2.92;;
44774;SDS011;31340;51.402;0.016;2022-10-19T00:49:08;14.27;;;3.25;;
44774;SDS011;31340;51.402;0.016;2022-10-19T00:51:40;27.42;;;4.75;;
44774;SDS011;31340;51.402;0.016;2022-10-19T00:54:10;16.92;;;3.90;;
44774;SDS011;31340;51.402;0.016;2022-10-19T00:56:39;15.05;;;2.72;;
44774;SDS011;31340;51.402;0.016;2022-10-19T00:59:08;24.47;;;3.10;;
44774;SDS011;31340;51.402;0.016;2022-10-19T01:01:36;14.30;;;2.50;;
44774;SDS011;31340;51.402;0.016;2022-10-19T01:04:04;17.48;;;2.90;;
44774;SDS011;31340;51.402;0.016;2022-10-19T01:06:32;15.75;;;2.50;;
44774;SDS011;31340;51.402;0.016;2022-10-19T01:09:01;15.25;;;2.33;;
44774;SDS011;31340;51.402;0.016;2022-10-19T01:22:48;14.77;;;3.05;;
44774;SDS011;31340;51.402;0.016;2022-10-19T01:28:55;12.82;;;2.10;;
44774;SDS011;31340;51.402;0.016;2022-10-19T01:31:37;17.80;;;2.42;;
44774;SDS011;31340;51.402;0.016;2022-10-19T01:34:27;20.60;;;2.85;;
44774;SDS011;31340;51.402;0.016;2022-10-19T01:37:13;16.48;;;2.78;;
44774;SDS011;31340;51.402;0.016;2022-10-19T01:42:41;11.30;;;2.45;;
44774;SDS011;31340;51.402;0.016;2022-10-19T01:45:25;15.25;;;2.30;;
44774;SDS011;31340;51.402;0.016;2022-10-19T01:51:04;15.00;;;2.55;;
44774;SDS011;31340;51.402;0.016;2022-10-19T01:53:33;13.85;;;2.63;;
44774;SDS011;31340;51.402;0.016;2022-10-19T01:56:06;9.38;;;2.10;;
44774;SDS011;31340;51.402;0.016;2022-10-19T01:58:35;15.50;;;2.42;;
44774;SDS011;31340;51.402;0.016;2022-10-19T02:01:05;14.35;;;2.63;;
44774;SDS011;31340;51.402;0.016;2022-10-19T02:03:37;23.90;;;3.05;;
44774;SDS011;31340;51.402;0.016;2022-10-19T02:06:06;18.08;;;2.58;;
44774;SDS011;31340;51.402;0.016;2022-10-19T02:08:39;14.07;;;2.92;;
44774;SDS011;31340;51.402;0.016;2022-10-19T02:11:13;11.13;;;2.20;;
44774;SDS011;31340;51.402;0.016;2022-10-19T02:13:41;10.18;;;2.63;;
44774;SDS011;31340;51.402;0.016;2022-10-19T02:16:13;14.32;;;2.58;;
44774;SDS011;31340;51.402;0.016;2022-10-19T02:18:47;8.63;;;2.47;;
44774;SDS011;31340;51.402;0.016;2022-10-19T02:21:17;12.43;;;2.33;;
44774;SDS011;31340;51.402;0.016;2022-10-19T02:23:45;19.55;;;3.60;;
44774;SDS011;31340;51.402;0.016;2022-10-19T02:26:16;14.02;;;2.17;;
44774;SDS011;31340;51.402;0.016;2022-10-19T02:28:44;13.43;;;2.97;;
44774;SDS011;31340;51.402;0.016;2022-10-19T02:31:12;10.43;;;2.08;;
44774;SDS011;31340;51.402;0.016;2022-10-19T02:33:40;13.35;;;2.30;;
44774;SDS011;31340;51.402;0.016;2022-10-19T02:36:07;17.33;;;2.50;;
44774;SDS011;31340;51.402;0.016;2022-10-19T02:38:35;12.55;;;2.63;;
44774;SDS011;31340;51.402;0.016;2022-10-19T02:43:30;18.25;;;2.45;;
44774;SDS011;31340;51.402;0.016;2022-10-19T02:46:07;20.88;;;2.88;;
44774;SDS011;31340;51.402;0.016;2022-10-19T02:48:41;13.65;;;2.33;;
44774;SDS011;31340;51.402;0.016;2022-10-19T02:54:04;16.67;;;2.85;;
44774;SDS011;31340;51.402;0.016;2022-10-19T02:56:33;15.82;;;2.47;;
44774;SDS011;31340;51.402;0.016;2022-10-19T02:59:01;21.73;;;3.03;;
44774;SDS011;31340;51.402;0.016;2022-10-19T03:01:29;23.13;;;3.35;;
44774;SDS011;31340;51.402;0.016;2022-10-19T03:03:56;16.92;;;2.88;;
44774;SDS011;31340;51.402;0.016;2022-10-19T03:06:24;12.45;;;2.60;;
44774;SDS011;31340;51.402;0.016;2022-10-19T03:08:51;17.67;;;3.05;;
44774;SDS011;31340;51.402;0.016;2022-10-19T03:11:19;11.27;;;2.38;;
44774;SDS011;31340;51.402;0.016;2022-10-19T03:13:46;18.83;;;2.85;;
44774;SDS011;31340;51.402;0.016;2022-10-19T03:16:19;17.40;;;3.65;;
44774;SDS011;31340;51.402;0.016;2022-10-19T03:18:47;17.80;;;3.55;;
44774;SDS011;31340;51.402;0.016;2022-10-19T03:21:15;17.17;;;2.95;;
44774;SDS011;31340;51.402;0.016;2022-10-19T03:23:44;15.45;;;2.80;;
44774;SDS011;31340;51.402;0.016;2022-10-19T03:26:12;16.13;;;3.25;;
44774;SDS011;31340;51.402;0.016;2022-10-19T03:28:42;24.25;;;3.58;;
44774;SDS011;31340;51.402;0.016;2022-10-19T03:31:09;30.70;;;4.22;;
44774;SDS011;31340;51.402;0.016;2022-10-19T03:33:38;18.50;;;3.10;;
44774;SDS011;31340;51.402;0.016;2022-10-19T03:38:53;17.90;;;3.38;;
44774;SDS011;31340;51.402;0.016;2022-10-19T03:41:23;21.40;;;3.50;;
44774;SDS011;31340;51.402;0.016;2022-10-19T03:43:53;15.60;;;3.17;;
44774;SDS011;31340;51.402;0.016;2022-10-19T03:46:21;22.13;;;2.75;;
44774;SDS011;31340;51.402;0.016;2022-10-19T03:48:48;17.88;;;3.45;;
44774;SDS011;31340;51.402;0.016;2022-10-19T03:51:17;12.95;;;3.17;;
44774;SDS011;31340;51.402;0.016;2022-10-19T03:53:46;23.30;;;4.40;;
44774;SDS011;31340;51.402;0.016;2022-10-19T03:56:18;21.80;;;2.55;;
44774;SDS011;31340;51.402;0.016;2022-10-19T03:58:47;22.50;;;3.40;;
44774;SDS011;31340;51.402;0.016;2022-10-19T04:01:26;12.95;;;2.63;;
44774;SDS011;31340;51.402;0.016;2022-10-19T04:04:02;19.67;;;2.90;;
44774;SDS011;31340;51.402;0.016;2022-10-19T04:06:35;15.00;;;2.58;;
44774;SDS011;31340;51.402;0.016;2022-10-19T04:09:04;24.98;;;4.15;;
44774;SDS011;31340;51.402;0.016;2022-10-19T04:11:33;18.00;;;3.33;;
44774;SDS011;31340;51.402;0.016;2022-10-19T04:14:01;20.80;;;3.58;;
44774;SDS011;31340;51.402;0.016;2022-10-19T04:16:30;25.27;;;3.83;;
44774;SDS011;31340;51.402;0.016;2022-10-19T04:18:59;19.15;;;3.08;;
44774;SDS011;31340;51.402;0.016;2022-10-19T04:21:31;24.73;;;3.25;;
44774;SDS011;31340;51.402;0.016;2022-10-19T04:26:28;13.00;;;2.90;;
44774;SDS011;31340;51.402;0.016;2022-10-19T04:28:56;23.25;;;4.47;;
44774;SDS011;31340;51.402;0.016;2022-10-19T04:31:25;29.88;;;3.85;;
44774;SDS011;31340;51.402;0.016;2022-10-19T04:33:54;21.08;;;4.05;;
44774;SDS011;31340;51.402;0.016;2022-10-19T04:36:22;19.15;;;3.20;;
44774;SDS011;31340;51.402;0.016;2022-10-19T04:38:49;21.02;;;4.20;;
44774;SDS011;31340;51.402;0.016;2022-10-19T04:41:18;27.27;;;4.22;;
44774;SDS011;31340;51.402;0.016;2022-10-19T04:43:47;23.08;;;3.92;;
44774;SDS011;31340;51.402;0.016;2022-10-19T04:46:16;22.73;;;4.43;;
44774;SDS011;31340;51.402;0.016;2022-10-19T04:48:45;25.92;;;5.05;;
44774;SDS011;31340;51.402;0.016;2022-10-19T04:51:13;16.40;;;4.15;;
44774;SDS011;31340;51.402;0.016;2022-10-19T04:53:42;32.50;;;4.72;;
44774;SDS011;31340;51.402;0.016;2022-10-19T04:56:11;22.05;;;4.18;;
44774;SDS011;31340;51.402;0.016;2022-10-19T04:58:44;22.30;;;4.05;;
44774;SDS011;31340;51.402;0.016;2022-10-19T05:03:44;19.45;;;4.40;;
44774;SDS011;31340;51.402;0.016;2022-10-19T05:06:12;33.88;;;4.80;;
44774;SDS011;31340;51.402;0.016;2022-10-19T05:08:40;24.90;;;4.53;;
44774;SDS011;31340;51.402;0.016;2022-10-19T05:11:09;20.77;;;4.93;;
44774;SDS011;31340;51.402;0.016;2022-10-19T05:13:40;25.52;;;4.95;;
44774;SDS011;31340;51.402;0.016;2022-10-19T05:16:12;22.73;;;4.97;;
44774;SDS011;31340;51.402;0.016;2022-10-19T05:18:42;27.55;;;4.85;;
44774;SDS011;31340;51.402;0.016;2022-10-19T05:21:13;19.35;;;4.90;;
44774;SDS011;31340;51.402;0.016;2022-10-19T05:23:41;22.10;;;5.28;;
44774;SDS011;31340;51.402;0.016;2022-10-19T05:26:12;26.92;;;5.20;;
44774;SDS011;31340;51.402;0.016;2022-10-19T05:28:46;24.25;;;5.68;;
44774;SDS011;31340;51.402;0.016;2022-10-19T05:31:18;33.88;;;5.88;;
44774;SDS011;31340;51.402;0.016;2022-10-19T05:33:46;25.30;;;5.97;;
44774;SDS011;31340;51.402;0.016;2022-10-19T05:36:15;28.75;;;6.93;;
44774;SDS011;31340;51.402;0.016;2022-10-19T05:38:48;24.52;;;5.50;;
44774;SDS011;31340;51.402;0.016;2022-10-19T05:41:16;24.45;;;5.30;;
44774;SDS011;31340;51.402;0.016;2022-10-19T05:43:44;30.70;;;6.43;;
44774;SDS011;31340;51.402;0.016;2022-10-19T05:46:14;29.40;;;6.70;;
44774;SDS011;31340;51.402;0.016;2022-10-19T05:48:44;23.80;;;5.90;;
44774;SDS011;31340;51.402;0.016;2022-10-19T05:51:14;30.38;;;7.03;;
44774;SDS011;31340;51.402;0.016;2022-10-19T05:53:44;25.73;;;5.68;;
44774;SDS011;31340;51.402;0.016;2022-10-19T05:56:13;28.63;;;6.03;;
44774;SDS011;31340;51.402;0.016;2022-10-19T05:58:46;28.85;;;6.93;;
44774;SDS011;31340;51.402;0.016;2022-10-19T06:01:14;28.33;;;5.90;;
44774;SDS011;31340;51.402;0.016;2022-10-19T06:03:45;33.95;;;5.85;;
44774;SDS011;31340;51.402;0.016;2022-10-19T06:06:13;25.25;;;5.82;;
44774;SDS011;31340;51.402;0.016;2022-10-19T06:08:40;25.42;;;6.10;;
44774;SDS011;31340;51.402;0.016;2022-10-19T06:11:09;26.30;;;5.57;;
44774;SDS011;31340;51.402;0.016;2022-10-19T06:13:41;35.60;;;6.28;;
44774;SDS011;31340;51.402;0.016;2022-10-19T06:16:10;38.72;;;6.60;;
44774;SDS011;31340;51.402;0.016;2022-10-19T06:18:39;33.78;;;7.43;;
44774;SDS011;31340;51.402;0.016;2022-10-19T06:21:16;29.15;;;6.05;;
44774;SDS011;31340;51.402;0.016;2022-10-19T06:23:48;35.33;;;6.97;;
44774;SDS011;31340;51.402;0.016;2022-10-19T06:26:19;34.28;;;7.25;;
44774;SDS011;31340;51.402;0.016;2022-10-19T06:28:47;27.63;;;6.45;;
44774;SDS011;31340;51.402;0.016;2022-10-19T06:31:15;37.38;;;8.05;;
44774;SDS011;31340;51.402;0.016;2022-10-19T06:33:44;30.50;;;6.30;;
44774;SDS011;31340;51.402;0.016;2022-10-19T06:36:16;29.75;;;6.57;;
44774;SDS011;31340;51.402;0.016;2022-10-19T06:41:13;35.85;;;7.57;;
44774;SDS011;31340;51.402;0.016;2022-10-19T06:43:41;28.10;;;6.80;;
44774;SDS011;31340;51.402;0.016;2022-10-19T06:46:10;37.25;;;7.50;;
44774;SDS011;31340;51.402;0.016;2022-10-19T06:48:40;28.20;;;8.00;;
44774;SDS011;31340;51.402;0.016;2022-10-19T06:51:08;31.42;;;7.75;;
44774;SDS011;31340;51.402;0.016;2022-10-19T06:53:35;29.30;;;7.53;;
44774;SDS011;31340;51.402;0.016;2022-10-19T06:56:03;36.30;;;7.00;;
44774;SDS011;31340;51.402;0.016;2022-10-19T06:58:35;30.73;;;6.88;;
44774;SDS011;31340;51.402;0.016;2022-10-19T07:01:04;22.67;;;5.68;;
44774;SDS011;31340;51.402;0.016;2022-10-19T07:03:36;31.10;;;6.60;;
44774;SDS011;31340;51.402;0.016;2022-10-19T07:06:07;28.63;;;6.38;;
44774;SDS011;31340;51.402;0.016;2022-10-19T07:08:37;25.15;;;4.93;;
44774;SDS011;31340;51.402;0.016;2022-10-19T07:11:08;28.67;;;6.30;;
44774;SDS011;31340;51.402;0.016;2022-10-19T07:16:06;27.13;;;5.93;;
44774;SDS011;31340;51.402;0.016;2022-10-19T07:18:43;23.08;;;5.20;;
44774;SDS011;31340;51.402;0.016;2022-10-19T07:21:12;34.33;;;6.07;;
44774;SDS011;31340;51.402;0.016;2022-10-19T07:23:42;40.78;;;6.35;;
44774;SDS011;31340;51.402;0.016;2022-10-19T07:26:14;32.92;;;5.35;;
44774;SDS011;31340;51.402;0.016;2022-10-19T07:28:54;23.40;;;4.80;;
44774;SDS011;31340;51.402;0.016;2022-10-19T07:31:23;27.48;;;5.13;;
44774;SDS011;31340;51.402;0.016;2022-10-19T07:33:59;23.50;;;5.40;;
44774;SDS011;31340;51.402;0.016;2022-10-19T07:36:30;19.30;;;4.50;;
44774;SDS011;31340;51.402;0.016;2022-10-19T07:39:03;29.08;;;5.00;;
44774;SDS011;31340;51.402;0.016;2022-10-19T07:41:32;26.02;;;5.45;;
44774;SDS011;31340;51.402;0.016;2022-10-19T07:44:03;27.23;;;5.35;;
44774;SDS011;31340;51.402;0.016;2022-10-19T07:46:31;25.88;;;4.60;;
44774;SDS011;31340;51.402;0.016;2022-10-19T07:48:59;26.73;;;5.15;;
44774;SDS011;31340;51.402;0.016;2022-10-19T07:51:27;25.63;;;5.15;;
44774;SDS011;31340;51.402;0.016;2022-10-19T07:53:59;26.92;;;4.50;;
44774;SDS011;31340;51.402;0.016;2022-10-19T07:56:27;31.08;;;5.80;;
44774;SDS011;31340;51.402;0.016;2022-10-19T07:58:55;24.25;;;4.82;;
44774;SDS011;31340;51.402;0.016;2022-10-19T08:01:28;41.35;;;6.50;;
44774;SDS011;31340;51.402;0.016;2022-10-19T08:03:58;30.85;;;5.28;;
44774;SDS011;31340;51.402;0.016;2022-10-19T08:06:46;31.63;;;6.50;;
44774;SDS011;31340;51.402;0.016;2022-10-19T08:09:14;28.35;;;6.10;;
44774;SDS011;31340;51.402;0.016;2022-10-19T08:12:01;27.67;;;5.30;;
44774;SDS011;31340;51.402;0.016;2022-10-19T08:14:30;23.35;;;4.75;;
44774;SDS011;31340;51.402;0.016;2022-10-19T08:16:57;25.48;;;5.88;;
44774;SDS011;31340;51.402;0.016;2022-10-19T08:19:25;23.58;;;5.53;;
44774;SDS011;31340;51.402;0.016;2022-10-19T08:21:53;33.03;;;6.82;;
44774;SDS011;31340;51.402;0.016;2022-10-19T08:24:20;25.38;;;6.28;;
44774;SDS011;31340;51.402;0.016;2022-10-19T08:26:48;29.55;;;5.55;;
44774;SDS011;31340;51.402;0.016;2022-10-19T08:29:18;39.38;;;6.90;;
44774;SDS011;31340;51.402;0.016;2022-10-19T08:31:47;29.65;;;5.88;;
44774;SDS011;31340;51.402;0.016;2022-10-19T08:34:15;22.35;;;5.55;;
44774;SDS011;31340;51.402;0.016;2022-10-19T08:36:43;30.05;;;5.70;;
44774;SDS011;31340;51.402;0.016;2022-10-19T08:39:11;23.27;;;5.82;;
44774;SDS011;31340;51.402;0.016;2022-10-19T08:41:54;26.63;;;6.28;;
44774;SDS011;31340;51.402;0.016;2022-10-19T08:44:43;24.23;;;5.25;;
44774;SDS011;31340;51.402;0.016;2022-10-19T08:50:41;28.63;;;5.22;;
44774;SDS011;31340;51.402;0.016;2022-10-19T08:53:15;23.02;;;5.22;;
44774;SDS011;31340;51.402;0.016;2022-10-19T09:10:39;26.05;;;5.28;;
44774;SDS011;31340;51.402;0.016;2022-10-19T09:15:14;19.27;;;6.00;;
44774;SDS011;31340;51.402;0.016;2022-10-19T09:17:45;22.15;;;4.60;;
44774;SDS011;31340;51.402;0.016;2022-10-19T09:20:16;30.25;;;5.85;;
44774;SDS011;31340;51.402;0.016;2022-10-19T09:22:51;28.10;;;4.72;;
44774;SDS011;31340;51.402;0.016;2022-10-19T09:25:26;23.17;;;6.22;;
44774;SDS011;31340;51.402;0.016;2022-10-19T09:28:01;23.38;;;4.90;;
44774;SDS011;31340;51.402;0.016;2022-10-19T09:30:59;24.13;;;5.55;;
44774;SDS011;31340;51.402;0.016;2022-10-19T09:33:31;24.65;;;5.43;;
44774;SDS011;31340;51.402;0.016;2022-10-19T09:36:03;32.03;;;6.57;;
44774;SDS011;31340;51.402;0.016;2022-10-19T09:38:33;26.83;;;5.50;;
44774;SDS011;31340;51.402;0.016;2022-10-19T09:41:11;28.25;;;5.47;;
44774;SDS011;31340;51.402;0.016;2022-10-19T09:43:44;27.70;;;5.85;;
44774;SDS011;31340;51.402;0.016;2022-10-19T09:46:26;27.60;;;5.65;;
44774;SDS011;31340;51.402;0.016;2022-10-19T09:49:05;23.85;;;5.25;;
44774;SDS011;31340;51.402;0.016;2022-10-19T09:51:39;18.38;;;5.18;;
44774;SDS011;31340;51.402;0.016;2022-10-19T09:54:22;34.45;;;6.32;;
44774;SDS011;31340;51.402;0.016;2022-10-19T09:56:53;33.10;;;6.03;;
44774;SDS011;31340;51.402;0.016;2022-10-19T09:59:23;21.02;;;5.95;;
44774;SDS011;31340;51.402;0.016;2022-10-19T10:02:10;23.83;;;5.32;;
44774;SDS011;31340;51.402;0.016;2022-10-19T10:04:45;21.58;;;5.95;;
44774;SDS011;31340;51.402;0.016;2022-10-19T10:07:41;24.42;;;5.95;;
44774;SDS011;31340;51.402;0.016;2022-10-19T10:10:14;24.85;;;6.03;;
44774;SDS011;31340;51.402;0.016;2022-10-19T10:12:46;25.42;;;4.93;;
44774;SDS011;31340;51.402;0.016;2022-10-19T10:15:15;16.55;;;5.55;;
44774;SDS011;31340;51.402;0.016;2022-10-19T10:17:47;23.00;;;6.18;;
44774;SDS011;31340;51.402;0.016;2022-10-19T10:20:17;29.58;;;6.72;;
44774;SDS011;31340;51.402;0.016;2022-10-19T10:23:11;21.67;;;4.68;;
44774;SDS011;31340;51.402;0.016;2022-10-19T10:25:48;25.65;;;5.55;;
44774;SDS011;31340;51.402;0.016;2022-10-19T10:28:17;20.85;;;4.95;;
44774;SDS011;31340;51.402;0.016;2022-10-19T10:30:47;23.10;;;6.43;;
44774;SDS011;31340;51.402;0.016;2022-10-19T10:33:22;23.23;;;5.60;;
44774;SDS011;31340;51.402;0.016;2022-10-19T10:36:10;23.95;;;5.85;;
44774;SDS011;31340;51.402;0.016;2022-10-19T10:38:40;19.17;;;5.10;;
44774;SDS011;31340;51.402;0.016;2022-10-19T10:41:20;22.33;;;5.43;;
44774;SDS011;31340;51.402;0.016;2022-10-19T10:43:53;21.40;;;5.15;;
44774;SDS011;31340;51.402;0.016;2022-10-19T10:46:27;21.85;;;5.43;;
44774;SDS011;31340;51.402;0.016;2022-10-19T10:49:06;27.27;;;5.75;;
44774;SDS011;31340;51.402;0.016;2022-10-19T10:51:42;26.40;;;6.25;;
44774;SDS011;31340;51.402;0.016;2022-10-19T10:54:22;31.27;;;6.50;;
44774;SDS011;31340;51.402;0.016;2022-10-19T11:02:31;23.08;;;5.68;;
44774;SDS011;31340;51.402;0.016;2022-10-19T11:05:14;30.38;;;5.22;;
44774;SDS011;31340;51.402;0.016;2022-10-19T11:10:54;26.73;;;5.90;;
44774;SDS011;31340;51.402;0.016;2022-10-19T11:18:35;23.75;;;5.97;;
44774;SDS011;31340;51.402;0.016;2022-10-19T11:21:12;30.88;;;6.78;;
44774;SDS011;31340;51.402;0.016;2022-10-19T11:26:52;21.15;;;4.65;;
44774;SDS011;31340;51.402;0.016;2022-10-19T11:29:41;23.25;;;5.38;;
44774;SDS011;31340;51.402;0.016;2022-10-19T11:52:11;23.20;;;5.18;;
44774;SDS011;31340;51.402;0.016;2022-10-19T12:00:24;22.75;;;4.93;;
44774;SDS011;31340;51.402;0.016;2022-10-19T12:06:57;25.52;;;6.00;;
44774;SDS011;31340;51.402;0.016;2022-10-19T12:09:38;25.27;;;5.07;;
44774;SDS011;31340;51.402;0.016;2022-10-19T12:14:49;19.77;;;5.40;;
44774;SDS011;31340;51.402;0.016;2022-10-19T12:17:25;27.20;;;6.18;;
44774;SDS011;31340;51.402;0.016;2022-10-19T12:20:00;27.92;;;5.50;;
44774;SDS011;31340;51.402;0.016;2022-10-19T12:22:45;20.05;;;4.93;;
44774;SDS011;31340;51.402;0.016;2022-10-19T12:25:15;21.00;;;4.88;;
44774;SDS011;31340;51.402;0.016;2022-10-19T12:27:44;30.85;;;7.65;;
44774;SDS011;31340;51.402;0.016;2022-10-19T12:30:16;30.40;;;6.40;;
44774;SDS011;31340;51.402;0.016;2022-10-19T12:32:51;25.10;;;6.03;;
44774;SDS011;31340;51.402;0.016;2022-10-19T12:38:27;28.25;;;6.05;;
44774;SDS011;31340;51.402;0.016;2022-10-19T12:41:28;24.58;;;6.18;;
44774;SDS011;31340;51.402;0.016;2022-10-19T12:44:08;30.80;;;5.72;;
44774;SDS011;31340;51.402;0.016;2022-10-19T12:47:06;20.05;;;4.32;;
44774;SDS011;31340;51.402;0.016;2022-10-19T12:49:36;20.98;;;4.75;;
44774;SDS011;31340;51.402;0.016;2022-10-19T12:52:09;25.50;;;5.43;;
44774;SDS011;31340;51.402;0.016;2022-10-19T12:54:38;22.80;;;5.57;;
44774;SDS011;31340;51.402;0.016;2022-10-19T12:57:22;27.85;;;5.57;;
44774;SDS011;31340;51.402;0.016;2022-10-19T13:00:04;20.30;;;5.65;;
44774;SDS011;31340;51.402;0.016;2022-10-19T13:02:45;18.38;;;5.22;;
44774;SDS011;31340;51.402;0.016;2022-10-19T13:05:20;29.48;;;5.38;;
44774;SDS011;31340;51.402;0.016;2022-10-19T13:07:50;21.85;;;5.53;;
44774;SDS011;31340;51.402;0.016;2022-10-19T13:10:18;26.15;;;6.25;;
44774;SDS011;31340;51.402;0.016;2022-10-19T13:18:02;26.10;;;5.15;;
44774;SDS011;31340;51.402;0.016;2022-10-19T13:20:52;22.80;;;4.97;;
44774;SDS011;31340;51.402;0.016;2022-10-19T13:25:47;23.20;;;5.32;;
44774;SDS011;31340;51.402;0.016;2022-10-19T13:28:53;24.35;;;5.30;;
44774;SDS011;31340;51.402;0.016;2022-10-19T13:31:23;23.08;;;5.47;;
44774;SDS011;31340;51.402;0.016;2022-10-19T13:33:53;19.33;;;5.10;;
44774;SDS011;31340;51.402;0.016;2022-10-19T13:36:21;21.02;;;5.68;;
44774;SDS011;31340;51.402;0.016;2022-10-19T13:47:00;24.67;;;4.85;;
44774;SDS011;31340;51.402;0.016;2022-10-19T14:07:25;19.50;;;5.65;;
44774;SDS011;31340;51.402;0.016;2022-10-19T14:10:05;15.77;;;4.32;;
44774;SDS011;31340;51.402;0.016;2022-10-19T14:12:35;25.33;;;6.10;;
44774;SDS011;31340;51.402;0.016;2022-10-19T14:17:53;25.58;;;5.72;;
44774;SDS011;31340;51.402;0.016;2022-10-19T14:20:26;19.00;;;5.60;;
44774;SDS011;31340;51.402;0.016;2022-10-19T14:22:54;20.23;;;5.10;;
44774;SDS011;31340;51.402;0.016;2022-10-19T14:25:23;20.23;;;5.85;;
44774;SDS011;31340;51.402;0.016;2022-10-19T14:27:55;21.52;;;6.07;;
44774;SDS011;31340;51.402;0.016;2022-10-19T14:30:31;24.38;;;6.35;;
44774;SDS011;31340;51.402;0.016;2022-10-19T14:33:05;30.83;;;6.22;;
44774;SDS011;31340;51.402;0.016;2022-10-19T14:35:36;21.95;;;5.70;;
44774;SDS011;31340;51.402;0.016;2022-10-19T14:38:05;23.67;;;6.63;;
44774;SDS011;31340;51.402;0.016;2022-10-19T14:40:38;30.67;;;6.50;;
44774;SDS011;31340;51.402;0.016;2022-10-19T14:48:34;28.40;;;6.65;;
44774;SDS011;31340;51.402;0.016;2022-10-19T14:51:05;22.17;;;5.53;;
44774;SDS011;31340;51.402;0.016;2022-10-19T14:53:50;21.55;;;6.40;;
44774;SDS011;31340;51.402;0.016;2022-10-19T14:56:24;26.98;;;6.78;;
44774;SDS011;31340;51.402;0.016;2022-10-19T14:59:03;36.75;;;7.82;;
44774;SDS011;31340;51.402;0.016;2022-10-19T15:01:46;22.80;;;7.32;;
44774;SDS011;31340;51.402;0.016;2022-10-19T15:04:17;23.95;;;7.57;;
44774;SDS011;31340;51.402;0.016;2022-10-19T15:06:47;23.98;;;6.75;;
44774;SDS011;31340;51.402;0.016;2022-10-19T15:09:24;24.73;;;6.78;;
44774;SDS011;31340;51.402;0.016;2022-10-19T15:12:13;25.33;;;6.30;;
44774;SDS011;31340;51.402;0.016;2022-10-19T15:14:44;28.70;;;7.57;;
44774;SDS011;31340;51.402;0.016;2022-10-19T15:17:20;27.73;;;7.68;;
44774;SDS011;31340;51.402;0.016;2022-10-19T15:19:57;27.15;;;7.78;;
44774;SDS011;31340;51.402;0.016;2022-10-19T15:27:34;23.13;;;7.18;;
44774;SDS011;31340;51.402;0.016;2022-10-19T15:32:43;25.75;;;7.53;;
44774;SDS011;31340;51.402;0.016;2022-10-19T15:35:26;25.95;;;7.75;;
44774;SDS011;31340;51.402;0.016;2022-10-19T15:38:22;27.15;;;7.78;;
44774;SDS011;31340;51.402;0.016;2022-10-19T15:40:53;31.25;;;7.88;;
44774;SDS011;31340;51.402;0.016;2022-10-19T15:46:04;27.15;;;7.13;;
44774;SDS011;31340;51.402;0.016;2022-10-19T15:48:46;26.27;;;7.88;;
44774;SDS011;31340;51.402;0.016;2022-10-19T15:56:20;26.40;;;7.82;;
44774;SDS011;31340;51.402;0.016;2022-10-19T15:58:49;29.35;;;7.78;;
44774;SDS011;31340;51.402;0.016;2022-10-19T16:01:18;33.40;;;8.35;;
44774;SDS011;31340;51.402;0.016;2022-10-19T16:06:16;24.27;;;7.25;;
44774;SDS011;31340;51.402;0.016;2022-10-19T16:08:44;27.65;;;7.20;;
44774;SDS011;31340;51.402;0.016;2022-10-19T16:11:16;30.02;;;7.57;;
44774;SDS011;31340;51.402;0.016;2022-10-19T16:13:45;30.35;;;8.02;;
44774;SDS011;31340;51.402;0.016;2022-10-19T16:16:23;31.45;;;7.93;;
44774;SDS011;31340;51.402;0.016;2022-10-19T16:18:53;28.00;;;7.65;;
44774;SDS011;31340;51.402;0.016;2022-10-19T16:21:22;29.40;;;7.95;;
44774;SDS011;31340;51.402;0.016;2022-10-19T16:23:52;28.77;;;7.68;;
44774;SDS011;31340;51.402;0.016;2022-10-19T16:26:19;25.67;;;8.25;;
44774;SDS011;31340;51.402;0.016;2022-10-19T16:28:47;31.33;;;8.00;;
44774;SDS011;31340;51.402;0.016;2022-10-19T16:31:15;37.35;;;10.90;;
44774;SDS011;31340;51.402;0.016;2022-10-19T16:33:43;30.70;;;8.35;;
44774;SDS011;31340;51.402;0.016;2022-10-19T16:36:10;30.33;;;9.48;;
44774;SDS011;31340;51.402;0.016;2022-10-19T16:38:38;30.00;;;9.00;;
44774;SDS011;31340;51.402;0.016;2022-10-19T16:41:07;28.73;;;10.23;;
44774;SDS011;31340;51.402;0.016;2022-10-19T16:43:36;33.75;;;9.00;;
44774;SDS011;31340;51.402;0.016;2022-10-19T16:46:04;23.95;;;7.80;;
44774;SDS011;31340;51.402;0.016;2022-10-19T16:48:32;33.97;;;8.45;;
44774;SDS011;31340;51.402;0.016;2022-10-19T16:53:33;32.50;;;8.07;;
44774;SDS011;31340;51.402;0.016;2022-10-19T16:56:02;32.30;;;9.45;;
44774;SDS011;31340;51.402;0.016;2022-10-19T16:58:31;36.13;;;8.63;;
44774;SDS011;31340;51.402;0.016;2022-10-19T17:00:58;28.75;;;8.68;;
44774;SDS011;31340;51.402;0.016;2022-10-19T17:03:36;37.45;;;9.13;;
44774;SDS011;31340;51.402;0.016;2022-10-19T17:06:05;29.77;;;8.80;;
44774;SDS011;31340;51.402;0.016;2022-10-19T17:08:33;33.22;;;9.63;;
44774;SDS011;31340;51.402;0.016;2022-10-19T17:13:38;30.33;;;10.32;;
44774;SDS011;31340;51.402;0.016;2022-10-19T17:16:07;34.97;;;9.20;;
44774;SDS011;31340;51.402;0.016;2022-10-19T17:18:35;35.53;;;10.75;;
44774;SDS011;31340;51.402;0.016;2022-10-19T17:21:04;37.35;;;8.98;;
44774;SDS011;31340;51.402;0.016;2022-10-19T17:23:36;31.20;;;9.48;;
44774;SDS011;31340;51.402;0.016;2022-10-19T17:26:04;30.42;;;9.43;;
44774;SDS011;31340;51.402;0.016;2022-10-19T17:28:33;33.40;;;9.40;;
44774;SDS011;31340;51.402;0.016;2022-10-19T17:31:05;26.50;;;9.23;;
44774;SDS011;31340;51.402;0.016;2022-10-19T17:33:34;33.22;;;10.32;;
44774;SDS011;31340;51.402;0.016;2022-10-19T17:36:07;39.85;;;10.27;;
44774;SDS011;31340;51.402;0.016;2022-10-19T17:38:36;29.52;;;9.75;;
44774;SDS011;31340;51.402;0.016;2022-10-19T17:41:06;30.48;;;9.73;;
44774;SDS011;31340;51.402;0.016;2022-10-19T17:43:36;32.22;;;10.45;;
44774;SDS011;31340;51.402;0.016;2022-10-19T17:46:05;32.92;;;10.50;;
44774;SDS011;31340;51.402;0.016;2022-10-19T17:48:35;37.70;;;9.57;;
44774;SDS011;31340;51.402;0.016;2022-10-19T17:51:04;32.28;;;9.77;;
44774;SDS011;31340;51.402;0.016;2022-10-19T17:53:33;34.87;;;11.00;;
44774;SDS011;31340;51.402;0.016;2022-10-19T17:56:02;34.00;;;11.52;;
44774;SDS011;31340;51.402;0.016;2022-10-19T17:58:33;40.35;;;12.20;;
44774;SDS011;31340;51.402;0.016;2022-10-19T18:01:06;30.08;;;11.48;;